Time;durP1;ratioP1;P1;durP2;ratioP2;P2;SDS_P1;SDS_P2;PMS_P1;PMS_P2;Temp;Humidity;BMP_temperature;BMP_pressure;BME280_temperature;BME280_humidity;BME280_pressure;Samples;Min_cycle;Max_cycle;Signal;HPM_P1;HPM_P2
2021/05/10 00:00:46;;;;;;;4.60;4.30;;;;;;;;;;5120216;27;20441;-75
2021/05/10 00:03:12;;;;;;;4.73;4.33;;;;;;;;;;5120318;27;20423;-76
2021/05/10 00:05:39;;;;;;;4.87;4.20;;;;;;;;;;5131344;27;20831;-76
2021/05/10 00:08:05;;;;;;;3.80;3.50;;;;;;;;;;5113953;27;20536;-75
2021/05/10 00:10:32;;;;;;;3.77;3.47;;;;;;;;;;5135073;27;20850;-74
2021/05/10 00:12:58;;;;;;;4.20;3.90;;;;;;;;;;5118573;27;20987;-76
2021/05/10 00:15:24;;;;;;;4.50;4.10;;;;;;;;;;5115941;28;20451;-75
2021/05/10 00:17:49;;;;;;;3.60;3.30;;;;;;;;;;5115262;28;20524;-75
2021/05/10 00:20:15;;;;;;;5.70;3.57;;;;;;;;;;5112794;27;20423;-74
2021/05/10 00:22:41;;;;;;;4.30;3.57;;;;;;;;;;5104043;28;20425;-75
2021/05/10 00:25:08;;;;;;;3.30;2.90;;;;;;;;;;5109845;27;20454;-75
2021/05/10 00:27:34;;;;;;;3.50;3.20;;;;;;;;;;5122201;27;20427;-74
2021/05/10 00:30:00;;;;;;;3.87;3.57;;;;;;;;;;5117790;27;20995;-76
2021/05/10 00:32:26;;;;;;;4.70;4.30;;;;;;;;;;5123025;27;20452;-75
2021/05/10 00:34:52;;;;;;;3.57;3.27;;;;;;;;;;5119901;27;20421;-76
2021/05/10 00:37:18;;;;;;;4.10;3.80;;;;;;;;;;5117453;27;20427;-77
2021/05/10 00:39:44;;;;;;;4.47;4.07;;;;;;;;;;5120194;27;20483;-74
2021/05/10 00:42:10;;;;;;;4.00;3.70;;;;;;;;;;5135936;27;20450;-75
2021/05/10 00:44:36;;;;;;;4.30;3.67;;;;;;;;;;5113529;28;20432;-74
2021/05/10 00:47:02;;;;;;;5.03;3.90;;;;;;;;;;5115299;27;20540;-76
2021/05/10 00:49:28;;;;;;;4.17;3.77;;;;;;;;;;5101044;27;20483;-76
2021/05/10 00:51:54;;;;;;;4.13;3.73;;;;;;;;;;5106779;28;20457;-76
2021/05/10 00:54:20;;;;;;;4.03;3.73;;;;;;;;;;5112416;27;20464;-76
2021/05/10 00:56:46;;;;;;;6.20;3.67;;;;;;;;;;5119051;27;20631;-76
2021/05/10 00:59:13;;;;;;;4.23;3.90;;;;;;;;;;5127533;27;20435;-75
2021/05/10 01:01:39;;;;;;;5.93;3.60;;;;;;;;;;5105737;28;20750;-75
2021/05/10 01:04:05;;;;;;;5.00;3.80;;;;;;;;;;5115354;27;20428;-76
2021/05/10 01:06:32;;;;;;;4.40;3.30;;;;;;;;;;5108875;27;20418;-75
2021/05/10 01:08:57;;;;;;;3.40;3.10;;;;;;;;;;5119513;27;20431;-76
2021/05/10 01:11:23;;;;;;;4.33;3.43;;;;;;;;;;5135322;27;20508;-75
2021/05/10 01:13:50;;;;;;;4.40;3.17;;;;;;;;;;5120003;27;20430;-75
2021/05/10 01:16:16;;;;;;;4.20;2.60;;;;;;;;;;5106491;27;20848;-75
2021/05/10 01:18:42;;;;;;;4.77;2.90;;;;;;;;;;5112187;27;20528;-76
2021/05/10 01:21:09;;;;;;;3.17;2.87;;;;;;;;;;5114207;28;20424;-75
2021/05/10 01:23:35;;;;;;;3.73;2.70;;;;;;;;;;5115843;27;20476;-75
2021/05/10 01:26:01;;;;;;;4.00;2.50;;;;;;;;;;5117535;27;20428;-75
2021/05/10 01:28:27;;;;;;;2.80;2.50;;;;;;;;;;5114133;28;20429;-76
2021/05/10 01:30:53;;;;;;;2.63;2.43;;;;;;;;;;5119691;27;20519;-76
2021/05/10 01:33:20;;;;;;;3.07;2.30;;;;;;;;;;5127400;27;20516;-75
2021/05/10 01:35:47;;;;;;;5.40;2.83;;;;;;;;;;5124847;27;20411;-76
2021/05/10 01:38:14;;;;;;;3.90;2.47;;;;;;;;;;5114748;27;20455;-76
2021/05/10 01:40:40;;;;;;;2.93;2.73;;;;;;;;;;5119130;27;20560;-76
2021/05/10 01:43:06;;;;;;;3.30;2.90;;;;;;;;;;5126585;27;20503;-75
2021/05/10 01:45:33;;;;;;;4.20;2.40;;;;;;;;;;5114055;28;20512;-76
2021/05/10 01:48:00;;;;;;;2.60;2.10;;;;;;;;;;5110744;27;20971;-75
2021/05/10 01:50:26;;;;;;;2.67;2.43;;;;;;;;;;5110287;27;20972;-76
2021/05/10 01:52:53;;;;;;;3.10;2.70;;;;;;;;;;5102008;27;20420;-76
2021/05/10 01:55:21;;;;;;;2.70;2.40;;;;;;;;;;5112569;28;20817;-75
2021/05/10 01:57:48;;;;;;;3.00;2.70;;;;;;;;;;5100566;28;20447;-75
2021/05/10 02:00:16;;;;;;;3.20;2.90;;;;;;;;;;5110529;28;20929;-75
2021/05/10 02:02:43;;;;;;;2.90;2.27;;;;;;;;;;5112498;28;20442;-77
2021/05/10 02:05:14;;;;;;;2.60;2.40;;;;;;;;;;5114127;28;20429;-74
2021/05/10 02:07:41;;;;;;;2.73;2.53;;;;;;;;;;5111800;28;20520;-76
2021/05/10 02:10:09;;;;;;;3.40;2.57;;;;;;;;;;5115074;27;20554;-75
2021/05/10 02:12:36;;;;;;;4.87;3.13;;;;;;;;;;5134005;27;20474;-74
2021/05/10 02:15:02;;;;;;;2.80;2.50;;;;;;;;;;5114120;27;20412;-74
2021/05/10 02:17:28;;;;;;;4.03;2.90;;;;;;;;;;5122048;27;20422;-76
2021/05/10 02:19:54;;;;;;;3.27;2.57;;;;;;;;;;5117591;27;20451;-75
2021/05/10 02:22:20;;;;;;;3.30;2.43;;;;;;;;;;5105101;28;20420;-75
2021/05/10 02:24:46;;;;;;;2.60;2.40;;;;;;;;;;5101431;27;20424;-76
2021/05/10 02:27:12;;;;;;;3.67;2.67;;;;;;;;;;5121049;27;20419;-75
2021/05/10 02:29:37;;;;;;;3.37;2.57;;;;;;;;;;5112780;28;20532;-75
2021/05/10 02:32:04;;;;;;;3.50;2.80;;;;;;;;;;5112957;27;20470;-75
2021/05/10 02:34:30;;;;;;;3.23;2.83;;;;;;;;;;5112924;28;20434;-75
2021/05/10 02:36:55;;;;;;;3.33;2.73;;;;;;;;;;5112577;28;20507;-76
2021/05/10 02:39:21;;;;;;;4.63;2.70;;;;;;;;;;5109172;28;20916;-76
2021/05/10 02:41:47;;;;;;;3.60;2.30;;;;;;;;;;5120601;27;20725;-75
2021/05/10 02:44:13;;;;;;;4.03;2.67;;;;;;;;;;5115274;28;20416;-76
2021/05/10 02:46:39;;;;;;;3.57;2.40;;;;;;;;;;5119162;28;20794;-75
2021/05/10 02:49:05;;;;;;;3.50;2.83;;;;;;;;;;5124651;27;20437;-75
2021/05/10 02:51:31;;;;;;;3.70;2.37;;;;;;;;;;5110721;28;20473;-75
2021/05/10 02:53:57;;;;;;;3.13;2.30;;;;;;;;;;5119193;28;20425;-75
2021/05/10 02:56:23;;;;;;;2.80;2.50;;;;;;;;;;5106709;28;20504;-76
2021/05/10 02:58:49;;;;;;;3.90;2.30;;;;;;;;;;5098630;28;20451;-76
2021/05/10 03:01:15;;;;;;;3.90;2.30;;;;;;;;;;5110290;28;20506;-75
2021/05/10 03:03:41;;;;;;;2.60;2.30;;;;;;;;;;5108438;28;20479;-75
2021/05/10 03:06:07;;;;;;;3.47;2.57;;;;;;;;;;5133424;28;20473;-74
2021/05/10 03:08:33;;;;;;;3.70;2.37;;;;;;;;;;5110785;28;20455;-77
2021/05/10 03:10:59;;;;;;;3.00;2.37;;;;;;;;;;5121663;28;20490;-76
2021/05/10 03:13:25;;;;;;;4.27;2.53;;;;;;;;;;5126250;28;20928;-76
2021/05/10 03:15:51;;;;;;;3.57;2.30;;;;;;;;;;5110586;28;20430;-75
2021/05/10 03:18:18;;;;;;;2.63;2.40;;;;;;;;;;5128132;28;20457;-75
2021/05/10 03:20:44;;;;;;;3.37;2.60;;;;;;;;;;5106119;28;20490;-75
2021/05/10 03:23:10;;;;;;;3.93;2.70;;;;;;;;;;5127980;27;20518;-76
2021/05/10 03:25:36;;;;;;;5.63;2.43;;;;;;;;;;5123634;27;20809;-74
2021/05/10 03:28:02;;;;;;;3.33;2.70;;;;;;;;;;5130255;27;20451;-76
2021/05/10 03:30:27;;;;;;;3.33;2.70;;;;;;;;;;5116363;28;20901;-75
2021/05/10 03:32:54;;;;;;;3.40;3.10;;;;;;;;;;5115289;27;20432;-76
2021/05/10 03:35:20;;;;;;;5.50;3.07;;;;;;;;;;5116182;28;20427;-75
2021/05/10 03:37:47;;;;;;;3.80;2.93;;;;;;;;;;5107427;28;20417;-74
2021/05/10 03:40:14;;;;;;;3.03;2.73;;;;;;;;;;5116588;28;20761;-76
2021/05/10 03:42:40;;;;;;;4.17;3.50;;;;;;;;;;5129775;27;20407;-75
2021/05/10 03:45:07;;;;;;;3.57;3.27;;;;;;;;;;5116275;28;20494;-76
2021/05/10 03:47:39;;;;;;;3.73;3.00;;;;;;;;;;5116705;28;20499;-75
2021/05/10 03:50:09;;;;;;;3.20;2.90;;;;;;;;;;5114868;28;20563;-75
2021/05/10 03:52:35;;;;;;;3.30;3.00;;;;;;;;;;5105028;28;20510;-76
2021/05/10 03:55:01;;;;;;;3.43;3.13;;;;;;;;;;5115929;28;20415;-75
2021/05/10 03:57:27;;;;;;;3.67;2.90;;;;;;;;;;5134641;27;20769;-76
2021/05/10 03:59:53;;;;;;;3.97;3.10;;;;;;;;;;5126239;27;20447;-76
2021/05/10 04:02:20;;;;;;;3.67;3.30;;;;;;;;;;5110995;27;20423;-75
2021/05/10 04:04:53;;;;;;;4.27;3.70;;;;;;;;;;5125061;27;20470;-75
2021/05/10 04:07:37;;;;;;;3.73;3.33;;;;;;;;;;5129833;27;20434;-75
2021/05/10 04:15:33;;;;;;;4.30;3.90;;;;;;;;;;5114130;28;20424;-76
2021/05/10 04:17:59;;;;;;;6.00;3.40;;;;;;;;;;5114570;28;20469;-76
2021/05/10 04:20:25;;;;;;;4.20;3.80;;;;;;;;;;5100736;28;20424;-75
2021/05/10 04:22:51;;;;;;;4.43;3.70;;;;;;;;;;5122865;27;20549;-75
2021/05/10 04:25:17;;;;;;;3.47;3.17;;;;;;;;;;5124945;27;20416;-75
2021/05/10 04:27:43;;;;;;;3.70;3.40;;;;;;;;;;5104880;27;20974;-74
2021/05/10 04:30:09;;;;;;;5.53;4.13;;;;;;;;;;5114116;28;20460;-75
2021/05/10 04:32:35;;;;;;;4.77;4.20;;;;;;;;;;5116367;27;20431;-75
2021/05/10 04:35:01;;;;;;;4.27;3.87;;;;;;;;;;5119997;27;20408;-75
2021/05/10 04:37:27;;;;;;;7.17;3.67;;;;;;;;;;5128562;27;20835;-74
2021/05/10 04:39:53;;;;;;;4.27;3.87;;;;;;;;;;5107415;27;20474;-75
2021/05/10 04:42:19;;;;;;;6.10;3.43;;;;;;;;;;5114204;27;20830;-73
2021/05/10 04:44:45;;;;;;;7.57;3.77;;;;;;;;;;5121732;27;20506;-75
2021/05/10 04:47:11;;;;;;;4.20;3.80;;;;;;;;;;5128422;27;20514;-75
2021/05/10 04:49:37;;;;;;;4.10;3.30;;;;;;;;;;5125270;27;20437;-75
2021/05/10 04:52:03;;;;;;;4.03;3.63;;;;;;;;;;5122215;27;20503;-77
2021/05/10 04:54:29;;;;;;;6.20;3.07;;;;;;;;;;5118007;27;20413;-75
2021/05/10 04:56:55;;;;;;;4.90;3.50;;;;;;;;;;5111887;28;20892;-75
2021/05/10 04:59:21;;;;;;;3.77;3.47;;;;;;;;;;5108446;27;20928;-75
2021/05/10 05:01:47;;;;;;;4.80;3.87;;;;;;;;;;5120283;27;20425;-75
2021/05/10 05:04:13;;;;;;;4.07;3.43;;;;;;;;;;5109952;28;20430;-76
2021/05/10 05:06:39;;;;;;;7.20;3.90;;;;;;;;;;5114896;28;20879;-74
2021/05/10 05:09:05;;;;;;;4.37;3.90;;;;;;;;;;5113204;28;20441;-75
2021/05/10 05:11:31;;;;;;;3.63;3.20;;;;;;;;;;5114867;27;20455;-75
2021/05/10 05:13:58;;;;;;;4.03;3.27;;;;;;;;;;5126688;27;20423;-75
2021/05/10 05:16:24;;;;;;;3.90;3.10;;;;;;;;;;5128886;27;20488;-76
2021/05/10 05:18:50;;;;;;;4.20;3.80;;;;;;;;;;5134973;27;20931;-75
2021/05/10 05:21:15;;;;;;;3.97;3.50;;;;;;;;;;5121236;27;20443;-75
2021/05/10 05:23:41;;;;;;;4.17;3.87;;;;;;;;;;5114331;28;20814;-76
2021/05/10 05:26:07;;;;;;;4.10;3.40;;;;;;;;;;5128457;27;20432;-76
2021/05/10 05:28:34;;;;;;;4.27;3.87;;;;;;;;;;5122462;27;20566;-76
2021/05/10 05:31:01;;;;;;;4.73;3.83;;;;;;;;;;5127995;27;20481;-75
2021/05/10 05:33:27;;;;;;;4.50;3.40;;;;;;;;;;5112928;28;20420;-75
2021/05/10 05:35:54;;;;;;;3.83;3.53;;;;;;;;;;5107792;28;20421;-77
2021/05/10 05:38:20;;;;;;;5.17;3.50;;;;;;;;;;5112684;28;20444;-76
2021/05/10 05:40:46;;;;;;;10.50;4.00;;;;;;;;;;5127701;27;20422;-76
2021/05/10 05:43:13;;;;;;;6.10;4.10;;;;;;;;;;5113696;28;20420;-76
2021/05/10 05:45:39;;;;;;;4.47;3.73;;;;;;;;;;5119110;27;20422;-76
2021/05/10 05:48:07;;;;;;;5.57;3.87;;;;;;;;;;5121242;27;20520;-75
2021/05/10 05:50:33;;;;;;;3.80;3.50;;;;;;;;;;5123130;27;20457;-76
2021/05/10 05:52:59;;;;;;;4.67;3.50;;;;;;;;;;5133854;27;20416;-76
2021/05/10 05:55:26;;;;;;;3.83;3.30;;;;;;;;;;5118966;27;20509;-75
2021/05/10 05:57:52;;;;;;;5.73;3.77;;;;;;;;;;5121634;27;20896;-75
2021/05/10 06:00:18;;;;;;;4.77;3.90;;;;;;;;;;5133052;27;20420;-75
2021/05/10 06:02:45;;;;;;;5.77;3.60;;;;;;;;;;5120073;27;20903;-75
2021/05/10 06:05:12;;;;;;;6.93;4.10;;;;;;;;;;5139483;27;20444;-76
2021/05/10 06:07:44;;;;;;;4.87;4.37;;;;;;;;;;5122656;27;20422;-74
2021/05/10 06:10:11;;;;;;;7.87;4.10;;;;;;;;;;5125805;27;20447;-75
2021/05/10 06:12:38;;;;;;;4.80;3.90;;;;;;;;;;5128406;27;20424;-75
2021/05/10 06:15:04;;;;;;;6.63;4.23;;;;;;;;;;5115597;27;20481;-74
2021/05/10 06:17:30;;;;;;;11.70;6.13;;;;;;;;;;5109578;28;20889;-76
2021/05/10 06:19:57;;;;;;;6.40;4.13;;;;;;;;;;5130361;27;20761;-75
2021/05/10 06:22:22;;;;;;;6.53;5.20;;;;;;;;;;5121658;27;20753;-76
2021/05/10 06:24:49;;;;;;;4.77;3.97;;;;;;;;;;5130388;27;20408;-76
2021/05/10 06:27:15;;;;;;;4.83;3.60;;;;;;;;;;5123520;27;20419;-76
2021/05/10 06:29:41;;;;;;;4.27;3.83;;;;;;;;;;5114909;27;20441;-76
2021/05/10 06:32:07;;;;;;;8.63;3.70;;;;;;;;;;5133818;27;20496;-76
2021/05/10 06:34:33;;;;;;;11.47;4.77;;;;;;;;;;5122673;27;20416;-76
2021/05/10 06:36:59;;;;;;;7.70;4.70;;;;;;;;;;5128922;27;20417;-76
2021/05/10 06:39:25;;;;;;;10.43;4.40;;;;;;;;;;5110988;27;20554;-76
2021/05/10 06:41:51;;;;;;;7.77;4.13;;;;;;;;;;5108122;28;20853;-75
2021/05/10 06:44:17;;;;;;;5.40;4.50;;;;;;;;;;5111117;27;20466;-74
2021/05/10 06:46:43;;;;;;;4.93;4.43;;;;;;;;;;5107988;28;20431;-75
2021/05/10 06:49:09;;;;;;;5.97;3.77;;;;;;;;;;5113567;28;20438;-75
2021/05/10 06:51:35;;;;;;;5.93;3.63;;;;;;;;;;5105459;28;20524;-75
2021/05/10 06:54:01;;;;;;;5.60;5.10;;;;;;;;;;5120701;28;20411;-76
2021/05/10 06:56:27;;;;;;;5.00;4.60;;;;;;;;;;5117341;28;20451;-76
2021/05/10 06:58:53;;;;;;;5.23;4.57;;;;;;;;;;5130860;27;20455;-75
2021/05/10 07:01:19;;;;;;;7.07;4.90;;;;;;;;;;5105565;27;20475;-75
2021/05/10 07:03:45;;;;;;;6.10;4.60;;;;;;;;;;5108430;28;20436;-76
2021/05/10 07:06:10;;;;;;;15.73;14.03;;;;;;;;;;5103047;28;20439;-76
2021/05/10 07:08:37;;;;;;;6.33;5.70;;;;;;;;;;5102143;27;20669;-74
2021/05/10 07:11:03;;;;;;;4.50;4.10;;;;;;;;;;5133995;27;20467;-75
2021/05/10 07:13:29;;;;;;;4.50;4.10;;;;;;;;;;5120185;27;20417;-76
2021/05/10 07:15:55;;;;;;;5.53;4.77;;;;;;;;;;5121161;27;20489;-75
2021/05/10 07:18:21;;;;;;;4.83;4.40;;;;;;;;;;5115147;27;20510;-76
2021/05/10 07:20:47;;;;;;;5.10;4.60;;;;;;;;;;5126556;27;20430;-76
2021/05/10 07:23:14;;;;;;;4.70;4.30;;;;;;;;;;5111462;28;20435;-76
2021/05/10 07:25:42;;;;;;;4.60;4.10;;;;;;;;;;5118953;27;21121;-80
2021/05/10 07:28:09;;;;;;;14.83;13.43;;;;;;;;;;5113378;28;20539;-79
2021/05/10 07:30:35;;;;;;;7.00;4.70;;;;;;;;;;5110763;28;20490;-78
2021/05/10 07:33:01;;;;;;;4.40;4.00;;;;;;;;;;5112576;27;20528;-80
2021/05/10 07:35:27;;;;;;;5.33;4.83;;;;;;;;;;5127773;27;20920;-80
2021/05/10 07:37:53;;;;;;;5.00;4.43;;;;;;;;;;5117897;27;20424;-81
2021/05/10 07:40:23;;;;;;;5.10;4.70;;;;;;;;;;5111444;27;20839;-80
2021/05/10 07:42:49;;;;;;;4.43;4.13;;;;;;;;;;5125644;27;20428;-83
2021/05/10 07:45:15;;;;;;;4.90;4.50;;;;;;;;;;5121112;27;20917;-81
2021/05/10 07:47:41;;;;;;;4.47;4.07;;;;;;;;;;5116038;27;20427;-78
2021/05/10 07:50:07;;;;;;;4.40;4.00;;;;;;;;;;5129521;27;20455;-79
2021/05/10 07:52:33;;;;;;;4.60;4.20;;;;;;;;;;5131584;27;20959;-78
2021/05/10 07:54:59;;;;;;;4.33;4.00;;;;;;;;;;5111179;28;20515;-81
2021/05/10 07:57:28;;;;;;;5.10;4.53;;;;;;;;;;5113161;27;20503;-80
2021/05/10 07:59:54;;;;;;;5.23;4.70;;;;;;;;;;5119028;27;20445;-80
2021/05/10 08:02:23;;;;;;;4.90;4.07;;;;;;;;;;5119233;27;20428;-79
2021/05/10 08:04:49;;;;;;;5.00;4.50;;;;;;;;;;5112420;28;20447;-79
2021/05/10 08:07:15;;;;;;;4.80;4.30;;;;;;;;;;5112452;27;20467;-80
2021/05/10 08:09:42;;;;;;;6.83;3.77;;;;;;;;;;5124700;27;20431;-76
2021/05/10 08:12:08;;;;;;;4.63;4.23;;;;;;;;;;5124634;27;20435;-80
2021/05/10 08:14:34;;;;;;;6.60;4.60;;;;;;;;;;5120581;27;20765;-80
2021/05/10 08:17:03;;;;;;;4.93;4.23;;;;;;;;;;5112658;27;20428;-80
2021/05/10 08:19:29;;;;;;;7.07;4.40;;;;;;;;;;5124836;27;20530;-81
2021/05/10 08:21:59;;;;;;;5.47;4.20;;;;;;;;;;5100528;27;20460;-78
2021/05/10 08:24:25;;;;;;;6.03;4.23;;;;;;;;;;5111779;28;20924;-80
2021/05/10 08:26:51;;;;;;;7.83;4.70;;;;;;;;;;5132590;27;20407;-81
2021/05/10 08:29:17;;;;;;;4.73;4.10;;;;;;;;;;5114735;27;20844;-82
2021/05/10 08:31:45;;;;;;;5.00;4.20;;;;;;;;;;5105425;27;20466;-78
2021/05/10 08:34:11;;;;;;;6.37;4.17;;;;;;;;;;5111371;27;20847;-78
2021/05/10 08:36:37;;;;;;;4.47;3.60;;;;;;;;;;5132216;27;20504;-81
2021/05/10 08:39:06;;;;;;;7.83;4.77;;;;;;;;;;5112769;27;20449;-81
2021/05/10 08:41:32;;;;;;;5.00;4.50;;;;;;;;;;5120758;27;20469;-79
2021/05/10 08:43:58;;;;;;;5.93;3.20;;;;;;;;;;5111622;27;20432;-85
2021/05/10 08:46:24;;;;;;;3.40;2.80;;;;;;;;;;5104841;27;20439;-81
2021/05/10 08:48:50;;;;;;;3.67;2.70;;;;;;;;;;5120617;27;20444;-82
2021/05/10 08:51:17;;;;;;;3.00;2.70;;;;;;;;;;5117416;27;20458;-80
2021/05/10 08:53:43;;;;;;;3.57;2.80;;;;;;;;;;5111799;27;20852;-80
2021/05/10 08:56:11;;;;;;;4.83;2.90;;;;;;;;;;5108143;28;20435;-80
2021/05/10 08:58:46;;;;;;;3.30;2.70;;;;;;;;;;5125152;27;20451;-80
2021/05/10 09:01:13;;;;;;;2.80;2.43;;;;;;;;;;5130442;27;20582;-78
2021/05/10 09:03:42;;;;;;;3.00;2.50;;;;;;;;;;5098672;27;20429;-79
2021/05/10 09:06:12;;;;;;;4.20;2.93;;;;;;;;;;5111294;28;20442;-80
2021/05/10 09:08:40;;;;;;;4.23;2.83;;;;;;;;;;5098051;28;20440;-80
2021/05/10 09:11:06;;;;;;;3.10;2.70;;;;;;;;;;5110684;27;20467;-80
2021/05/10 09:13:33;;;;;;;4.07;2.60;;;;;;;;;;5116976;27;20488;-80
2021/05/10 09:16:03;;;;;;;3.43;2.30;;;;;;;;;;5132342;27;20760;-80
2021/05/10 09:18:28;;;;;;;3.53;2.60;;;;;;;;;;5107007;27;20452;-80
2021/05/10 09:20:55;;;;;;;3.90;2.30;;;;;;;;;;5131681;27;20415;-81
2021/05/10 09:23:20;;;;;;;3.20;2.67;;;;;;;;;;5106710;27;20459;-82
2021/05/10 09:25:54;;;;;;;7.13;2.90;;;;;;;;;;5121934;27;20772;-79
2021/05/10 09:28:24;;;;;;;3.37;2.30;;;;;;;;;;5112070;27;20790;-79
2021/05/10 09:30:51;;;;;;;5.33;3.07;;;;;;;;;;5111237;28;20472;-79
2021/05/10 09:33:25;;;;;;;5.50;2.40;;;;;;;;;;5105371;27;20454;-80
2021/05/10 09:35:59;;;;;;;4.13;2.60;;;;;;;;;;5107802;28;20408;-78
2021/05/10 09:38:26;;;;;;;2.90;2.27;;;;;;;;;;5100825;27;20443;-80
2021/05/10 09:40:54;;;;;;;3.07;2.30;;;;;;;;;;5119974;27;20420;-82
2021/05/10 09:43:22;;;;;;;3.00;2.50;;;;;;;;;;5103802;28;20470;-80
2021/05/10 09:45:49;;;;;;;4.20;2.90;;;;;;;;;;5107009;28;20952;-82
2021/05/10 09:48:16;;;;;;;4.50;2.90;;;;;;;;;;5110687;28;20439;-82
2021/05/10 09:50:46;;;;;;;3.87;2.53;;;;;;;;;;5111616;28;20554;-78
2021/05/10 09:53:16;;;;;;;6.73;3.03;;;;;;;;;;5110784;28;20738;-79
2021/05/10 09:55:57;;;;;;;3.83;3.00;;;;;;;;;;5109458;28;20445;-82
2021/05/10 09:58:38;;;;;;;2.60;2.20;;;;;;;;;;5105895;28;20956;-83
2021/05/10 10:01:07;;;;;;;3.00;2.40;;;;;;;;;;5109498;28;20427;-82
2021/05/10 10:03:35;;;;;;;3.73;2.40;;;;;;;;;;5097350;28;20512;-79
2021/05/10 10:06:06;;;;;;;3.80;2.40;;;;;;;;;;5096900;28;20943;-81
2021/05/10 10:08:32;;;;;;;2.93;2.30;;;;;;;;;;5124643;27;20459;-79
2021/05/10 10:11:03;;;;;;;2.70;2.50;;;;;;;;;;5109624;28;20548;-79
2021/05/10 10:13:29;;;;;;;2.57;2.30;;;;;;;;;;5111964;27;20429;-82
2021/05/10 10:15:59;;;;;;;2.47;2.27;;;;;;;;;;5120297;27;20806;-80
2021/05/10 10:18:26;;;;;;;3.13;2.20;;;;;;;;;;5116070;27;20444;-78
2021/05/10 10:20:55;;;;;;;3.27;2.10;;;;;;;;;;5110595;28;20417;-80
2021/05/10 10:23:26;;;;;;;2.33;2.10;;;;;;;;;;5104437;27;21173;-79
2021/05/10 10:25:52;;;;;;;3.77;2.40;;;;;;;;;;5110091;28;20813;-80
2021/05/10 10:28:20;;;;;;;3.87;2.63;;;;;;;;;;5114663;27;20444;-79
2021/05/10 10:30:48;;;;;;;2.80;2.43;;;;;;;;;;5119131;27;20461;-79
2021/05/10 10:33:52;;;;;;;5.73;2.97;;;;;;;;;;5113686;27;20421;-83
2021/05/10 10:36:23;;;;;;;3.17;2.30;;;;;;;;;;5108280;28;20428;-80
2021/05/10 10:39:09;;;;;;;3.83;2.50;;;;;;;;;;5109630;27;20541;-81
2021/05/10 10:41:50;;;;;;;7.20;3.03;;;;;;;;;;5111707;27;20511;-80
2021/05/10 10:44:30;;;;;;;2.37;2.17;;;;;;;;;;5108279;28;20412;-80
2021/05/10 10:46:56;;;;;;;3.33;2.43;;;;;;;;;;5113820;28;20428;-79
2021/05/10 10:49:38;;;;;;;2.70;2.20;;;;;;;;;;5123897;28;20443;-81
2021/05/10 10:52:15;;;;;;;2.90;2.10;;;;;;;;;;5129180;28;21060;-80
2021/05/10 10:54:45;;;;;;;3.60;2.07;;;;;;;;;;5103237;28;20474;-80
2021/05/10 10:57:11;;;;;;;3.07;2.40;;;;;;;;;;5111930;28;20408;-80
2021/05/10 10:59:38;;;;;;;3.33;3.03;;;;;;;;;;5124167;28;20438;-79
2021/05/10 11:02:16;;;;;;;3.20;2.57;;;;;;;;;;5110079;28;20432;-80
2021/05/10 11:04:42;;;;;;;10.80;3.33;;;;;;;;;;5119136;28;20424;-78
2021/05/10 11:07:08;;;;;;;2.87;2.60;;;;;;;;;;5113970;28;20538;-81
2021/05/10 11:09:46;;;;;;;4.50;3.27;;;;;;;;;;5128499;28;20458;-80
2021/05/10 11:12:31;;;;;;;3.43;2.97;;;;;;;;;;5121882;28;20530;-79
2021/05/10 11:14:57;;;;;;;2.80;2.50;;;;;;;;;;5120189;28;20412;-80
2021/05/10 11:17:49;;;;;;;3.80;2.80;;;;;;;;;;5130199;28;21192;-80
2021/05/10 11:20:15;;;;;;;4.70;2.90;;;;;;;;;;5129923;28;20956;-82
2021/05/10 11:22:41;;;;;;;3.33;2.70;;;;;;;;;;5125362;28;20427;-81
2021/05/10 11:25:26;;;;;;;3.20;2.90;;;;;;;;;;5109168;28;20412;-81
2021/05/10 11:27:52;;;;;;;2.97;2.47;;;;;;;;;;5124018;28;20802;-79
2021/05/10 11:30:37;;;;;;;3.30;2.70;;;;;;;;;;5113588;28;20443;-80
2021/05/10 11:33:03;;;;;;;4.27;2.53;;;;;;;;;;5126499;28;20407;-81
2021/05/10 11:35:29;;;;;;;4.50;2.77;;;;;;;;;;5125189;28;20411;-79
2021/05/10 11:38:00;;;;;;;3.53;2.60;;;;;;;;;;5111256;28;20416;-79
2021/05/10 11:40:26;;;;;;;3.00;2.40;;;;;;;;;;5107460;28;20445;-78
2021/05/10 11:42:52;;;;;;;3.63;2.80;;;;;;;;;;5105927;28;20409;-81
2021/05/10 11:45:18;;;;;;;4.00;2.53;;;;;;;;;;5109387;28;20420;-80
2021/05/10 11:47:50;;;;;;;8.30;2.93;;;;;;;;;;5112888;28;20769;-79
2021/05/10 11:50:17;;;;;;;3.50;2.77;;;;;;;;;;5111888;28;20896;-79
2021/05/10 11:52:43;;;;;;;4.30;2.60;;;;;;;;;;5113164;28;20467;-81
2021/05/10 11:55:11;;;;;;;3.40;2.53;;;;;;;;;;5130488;27;20415;-79
2021/05/10 11:57:41;;;;;;;2.90;2.53;;;;;;;;;;5120599;27;20454;-77
2021/05/10 12:00:14;;;;;;;3.53;2.43;;;;;;;;;;5133622;27;20900;-81
2021/05/10 12:02:41;;;;;;;3.63;2.30;;;;;;;;;;5115809;27;20511;-77
2021/05/10 12:05:08;;;;;;;5.40;2.63;;;;;;;;;;5117463;27;20423;-81
2021/05/10 12:07:35;;;;;;;2.73;2.43;;;;;;;;;;5126332;27;20430;-80
2021/05/10 12:10:03;;;;;;;5.33;2.80;;;;;;;;;;5117407;27;20967;-78
2021/05/10 12:12:33;;;;;;;3.40;2.57;;;;;;;;;;5114822;27;20430;-73
2021/05/10 12:15:02;;;;;;;2.97;2.60;;;;;;;;;;5111902;27;20404;-73
2021/05/10 12:17:29;;;;;;;2.97;2.50;;;;;;;;;;5125859;27;20446;-75
2021/05/10 12:19:56;;;;;;;4.00;2.83;;;;;;;;;;5113984;27;20515;-75
2021/05/10 12:22:32;;;;;;;4.10;2.83;;;;;;;;;;5115072;27;20885;-76
2021/05/10 12:24:58;;;;;;;3.80;2.80;;;;;;;;;;5111689;28;20439;-75
2021/05/10 12:27:25;;;;;;;3.87;2.87;;;;;;;;;;5124815;27;20944;-76
2021/05/10 12:29:51;;;;;;;3.67;2.80;;;;;;;;;;5111783;28;20543;-75
2021/05/10 12:32:17;;;;;;;5.23;2.53;;;;;;;;;;5113846;27;20866;-74
2021/05/10 12:34:44;;;;;;;3.30;2.83;;;;;;;;;;5122094;27;20773;-76
2021/05/10 12:37:10;;;;;;;3.80;2.83;;;;;;;;;;5126882;27;20420;-77
2021/05/10 12:39:37;;;;;;;2.83;2.53;;;;;;;;;;5107742;27;20457;-77
2021/05/10 12:42:12;;;;;;;2.90;2.30;;;;;;;;;;5124074;27;20514;-77
2021/05/10 12:44:38;;;;;;;2.80;2.40;;;;;;;;;;5113983;27;20427;-76
2021/05/10 12:47:04;;;;;;;4.00;2.40;;;;;;;;;;5128550;27;20409;-77
2021/05/10 12:49:30;;;;;;;3.40;2.30;;;;;;;;;;5102177;27;20451;-77
2021/05/10 12:51:56;;;;;;;2.40;2.07;;;;;;;;;;5110372;28;20460;-77
2021/05/10 12:54:23;;;;;;;5.63;2.20;;;;;;;;;;5115628;27;20420;-77
2021/05/10 12:56:51;;;;;;;3.43;2.37;;;;;;;;;;5099514;28;20421;-76
2021/05/10 12:59:17;;;;;;;2.87;2.60;;;;;;;;;;5105705;28;21130;-77
2021/05/10 13:01:43;;;;;;;3.07;2.70;;;;;;;;;;5125167;27;20890;-77
2021/05/10 13:04:13;;;;;;;2.73;2.53;;;;;;;;;;5112128;27;20545;-78
2021/05/10 13:06:41;;;;;;;4.93;2.40;;;;;;;;;;5125471;27;20927;-77
2021/05/10 13:09:26;;;;;;;5.70;2.43;;;;;;;;;;5118834;27;20531;-76
2021/05/10 13:11:58;;;;;;;6.70;2.30;;;;;;;;;;5124670;27;20948;-78
2021/05/10 13:17:02;;;;;;;7.10;2.33;;;;;;;;;;5129445;27;20420;-77
2021/05/10 13:19:48;;;;;;;5.33;2.80;;;;;;;;;;5100164;27;20484;-77
2021/05/10 13:34:23;;;;;;;5.90;2.63;;;;;;;;;;5110352;28;20439;-75
2021/05/10 13:36:24;;;;;;;3.90;2.77;;;;;;;;;;5098761;27;20423;-77
2021/05/10 13:38:50;;;;;;;3.90;2.30;;;;;;;;;;5102812;28;20444;-77
2021/05/10 13:41:17;;;;;;;3.60;2.50;;;;;;;;;;5109999;28;20455;-76
2021/05/10 13:43:50;;;;;;;6.83;3.73;;;;;;;;;;5102798;28;20425;-77
2021/05/10 13:46:16;;;;;;;5.90;2.60;;;;;;;;;;5107339;27;21254;-77
2021/05/10 13:48:42;;;;;;;5.33;2.60;;;;;;;;;;5108795;28;20440;-76
2021/05/10 13:51:08;;;;;;;8.50;3.60;;;;;;;;;;5114349;27;20464;-76
2021/05/10 13:53:34;;;;;;;5.60;2.90;;;;;;;;;;5119151;27;20763;-77
2021/05/10 13:56:00;;;;;;;4.83;2.50;;;;;;;;;;5112571;27;20428;-77
2021/05/10 13:58:26;;;;;;;3.73;2.70;;;;;;;;;;5092105;28;20794;-77
2021/05/10 14:00:52;;;;;;;8.60;3.00;;;;;;;;;;5121127;27;20915;-76
2021/05/10 14:03:18;;;;;;;5.20;2.20;;;;;;;;;;5124763;27;20432;-76
2021/05/10 14:05:44;;;;;;;5.50;2.30;;;;;;;;;;5102109;28;20528;-75
2021/05/10 14:08:10;;;;;;;4.40;2.87;;;;;;;;;;5108193;28;20448;-77
2021/05/10 14:10:38;;;;;;;8.27;2.80;;;;;;;;;;5130348;27;20463;-76
2021/05/10 14:13:04;;;;;;;4.70;2.87;;;;;;;;;;5130422;27;20920;-78
2021/05/10 14:15:32;;;;;;;5.27;2.47;;;;;;;;;;5103339;27;20507;-77
2021/05/10 14:17:58;;;;;;;3.53;2.40;;;;;;;;;;5130196;27;20464;-78
2021/05/10 14:20:29;;;;;;;6.63;2.97;;;;;;;;;;5130321;27;20418;-77
2021/05/10 14:22:55;;;;;;;2.67;2.37;;;;;;;;;;5119706;27;20416;-77
2021/05/10 14:25:22;;;;;;;3.60;2.10;;;;;;;;;;5106478;27;20458;-76
2021/05/10 14:27:53;;;;;;;5.53;2.50;;;;;;;;;;5111186;27;20769;-78
2021/05/10 14:30:19;;;;;;;4.33;2.37;;;;;;;;;;5108171;28;20835;-77
2021/05/10 14:32:45;;;;;;;4.53;2.30;;;;;;;;;;5111336;27;20504;-78
2021/05/10 14:35:12;;;;;;;5.03;2.30;;;;;;;;;;5124801;27;20522;-77
2021/05/10 14:37:37;;;;;;;3.63;2.00;;;;;;;;;;5106548;28;20421;-76
2021/05/10 14:40:04;;;;;;;4.53;2.10;;;;;;;;;;5108162;27;21018;-77
2021/05/10 14:42:30;;;;;;;3.80;2.20;;;;;;;;;;5123510;27;20504;-76
2021/05/10 14:44:56;;;;;;;6.20;2.27;;;;;;;;;;5111803;28;20435;-76
2021/05/10 14:47:21;;;;;;;3.03;2.10;;;;;;;;;;5107903;28;20439;-79
2021/05/10 14:49:47;;;;;;;3.90;1.80;;;;;;;;;;5112371;28;20435;-77
2021/05/10 14:52:13;;;;;;;2.30;1.60;;;;;;;;;;5119332;28;20478;-76
2021/05/10 14:54:39;;;;;;;4.03;1.70;;;;;;;;;;5112135;28;20427;-78
2021/05/10 14:57:05;;;;;;;4.63;1.93;;;;;;;;;;5110622;28;20494;-77
2021/05/10 14:59:31;;;;;;;3.00;1.60;;;;;;;;;;5109239;28;20484;-76
2021/05/10 15:01:57;;;;;;;3.10;1.73;;;;;;;;;;5106764;28;20432;-77
2021/05/10 15:04:23;;;;;;;3.83;1.70;;;;;;;;;;5102814;28;20523;-77